sensor_id;sensor_type;location;lat;lon;timestamp;P1;durP1;ratioP1;P2;durP2;ratioP2
16314;SDS011;8266;52.150;4.768;2022-07-23T00:00:15;3.05;;;2.00;;
16314;SDS011;8266;52.150;4.768;2022-07-23T00:02:42;3.38;;;1.85;;
16314;SDS011;8266;52.150;4.768;2022-07-23T00:05:09;2.13;;;2.03;;
16314;SDS011;8266;52.150;4.768;2022-07-23T00:07:37;2.20;;;1.88;;
16314;SDS011;8266;52.150;4.768;2022-07-23T00:10:04;2.28;;;2.08;;
16314;SDS011;8266;52.150;4.768;2022-07-23T00:12:34;1.95;;;1.85;;
16314;SDS011;8266;52.150;4.768;2022-07-23T00:15:03;2.97;;;1.88;;
16314;SDS011;8266;52.150;4.768;2022-07-23T00:17:31;1.88;;;1.77;;
16314;SDS011;8266;52.150;4.768;2022-07-23T00:19:58;3.17;;;1.88;;
16314;SDS011;8266;52.150;4.768;2022-07-23T00:22:25;3.47;;;1.75;;
16314;SDS011;8266;52.150;4.768;2022-07-23T00:24:57;3.42;;;2.20;;
16314;SDS011;8266;52.150;4.768;2022-07-23T00:27:24;2.20;;;2.00;;
16314;SDS011;8266;52.150;4.768;2022-07-23T00:29:53;2.55;;;2.15;;
16314;SDS011;8266;52.150;4.768;2022-07-23T00:32:20;2.15;;;1.90;;
16314;SDS011;8266;52.150;4.768;2022-07-23T00:34:48;2.70;;;2.22;;
16314;SDS011;8266;52.150;4.768;2022-07-23T00:37:16;2.42;;;2.00;;
16314;SDS011;8266;52.150;4.768;2022-07-23T00:39:43;2.20;;;2.00;;
16314;SDS011;8266;52.150;4.768;2022-07-23T00:42:10;2.67;;;1.98;;
16314;SDS011;8266;52.150;4.768;2022-07-23T00:44:37;2.00;;;1.90;;
16314;SDS011;8266;52.150;4.768;2022-07-23T00:47:05;2.38;;;1.80;;
16314;SDS011;8266;52.150;4.768;2022-07-23T00:49:33;2.05;;;1.85;;
16314;SDS011;8266;52.150;4.768;2022-07-23T00:52:01;1.95;;;1.80;;
16314;SDS011;8266;52.150;4.768;2022-07-23T00:54:28;2.63;;;1.63;;
16314;SDS011;8266;52.150;4.768;2022-07-23T00:56:57;2.00;;;1.60;;
16314;SDS011;8266;52.150;4.768;2022-07-23T00:59:27;2.40;;;1.80;;
16314;SDS011;8266;52.150;4.768;2022-07-23T01:01:55;3.65;;;2.03;;
16314;SDS011;8266;52.150;4.768;2022-07-23T01:04:27;1.98;;;1.67;;
16314;SDS011;8266;52.150;4.768;2022-07-23T01:09:54;3.00;;;1.98;;
16314;SDS011;8266;52.150;4.768;2022-07-23T01:12:26;2.55;;;1.63;;
16314;SDS011;8266;52.150;4.768;2022-07-23T01:15:00;2.35;;;1.60;;
16314;SDS011;8266;52.150;4.768;2022-07-23T01:17:37;2.25;;;2.05;;
16314;SDS011;8266;52.150;4.768;2022-07-23T01:20:11;7.05;;;2.38;;
16314;SDS011;8266;52.150;4.768;2022-07-23T01:22:39;3.03;;;2.00;;
16314;SDS011;8266;52.150;4.768;2022-07-23T01:25:07;3.35;;;2.13;;
16314;SDS011;8266;52.150;4.768;2022-07-23T01:27:34;2.65;;;1.98;;
16314;SDS011;8266;52.150;4.768;2022-07-23T01:30:02;2.38;;;2.05;;
16314;SDS011;8266;52.150;4.768;2022-07-23T01:32:29;2.50;;;2.30;;
16314;SDS011;8266;52.150;4.768;2022-07-23T01:34:56;10.27;;;2.85;;
16314;SDS011;8266;52.150;4.768;2022-07-23T01:37:26;2.30;;;2.10;;
16314;SDS011;8266;52.150;4.768;2022-07-23T01:39:55;4.97;;;2.30;;
16314;SDS011;8266;52.150;4.768;2022-07-23T01:42:22;3.40;;;2.20;;
16314;SDS011;8266;52.150;4.768;2022-07-23T01:44:49;4.80;;;2.38;;
16314;SDS011;8266;52.150;4.768;2022-07-23T01:47:16;3.13;;;2.17;;
16314;SDS011;8266;52.150;4.768;2022-07-23T01:49:43;3.80;;;2.50;;
16314;SDS011;8266;52.150;4.768;2022-07-23T01:52:10;2.97;;;2.33;;
16314;SDS011;8266;52.150;4.768;2022-07-23T01:54:37;2.78;;;2.40;;
16314;SDS011;8266;52.150;4.768;2022-07-23T01:57:07;3.30;;;2.83;;
16314;SDS011;8266;52.150;4.768;2022-07-23T01:59:34;2.80;;;2.33;;
16314;SDS011;8266;52.150;4.768;2022-07-23T02:02:02;2.88;;;2.60;;
16314;SDS011;8266;52.150;4.768;2022-07-23T02:04:30;3.45;;;2.67;;
16314;SDS011;8266;52.150;4.768;2022-07-23T02:07:00;2.40;;;2.00;;
16314;SDS011;8266;52.150;4.768;2022-07-23T02:09:28;2.33;;;2.13;;
16314;SDS011;8266;52.150;4.768;2022-07-23T02:11:57;2.70;;;2.13;;
16314;SDS011;8266;52.150;4.768;2022-07-23T02:14:26;2.40;;;2.17;;
16314;SDS011;8266;52.150;4.768;2022-07-23T02:16:55;2.78;;;2.20;;
16314;SDS011;8266;52.150;4.768;2022-07-23T02:19:22;2.10;;;2.00;;
16314;SDS011;8266;52.150;4.768;2022-07-23T02:21:49;1.70;;;1.60;;
16314;SDS011;8266;52.150;4.768;2022-07-23T02:24:16;2.05;;;1.33;;
16314;SDS011;8266;52.150;4.768;2022-07-23T02:26:45;1.92;;;1.70;;
16314;SDS011;8266;52.150;4.768;2022-07-23T02:29:13;2.00;;;1.80;;
16314;SDS011;8266;52.150;4.768;2022-07-23T02:31:43;2.47;;;2.28;;
16314;SDS011;8266;52.150;4.768;2022-07-23T02:34:10;1.80;;;1.70;;
16314;SDS011;8266;52.150;4.768;2022-07-23T02:36:37;3.20;;;2.13;;
16314;SDS011;8266;52.150;4.768;2022-07-23T02:39:05;2.25;;;1.92;;
16314;SDS011;8266;52.150;4.768;2022-07-23T02:41:38;1.60;;;1.50;;
16314;SDS011;8266;52.150;4.768;2022-07-23T02:44:05;2.63;;;1.75;;
16314;SDS011;8266;52.150;4.768;2022-07-23T02:46:32;2.10;;;1.90;;
16314;SDS011;8266;52.150;4.768;2022-07-23T02:49:00;2.13;;;1.85;;
16314;SDS011;8266;52.150;4.768;2022-07-23T02:51:29;2.42;;;2.22;;
16314;SDS011;8266;52.150;4.768;2022-07-23T02:53:56;2.55;;;2.35;;
16314;SDS011;8266;52.150;4.768;2022-07-23T02:56:23;5.80;;;2.10;;
16314;SDS011;8266;52.150;4.768;2022-07-23T02:58:50;2.22;;;2.03;;
16314;SDS011;8266;52.150;4.768;2022-07-23T03:01:17;4.72;;;2.70;;
16314;SDS011;8266;52.150;4.768;2022-07-23T03:03:44;3.33;;;2.97;;
16314;SDS011;8266;52.150;4.768;2022-07-23T03:06:13;2.95;;;2.75;;
16314;SDS011;8266;52.150;4.768;2022-07-23T03:08:40;4.50;;;3.78;;
16314;SDS011;8266;52.150;4.768;2022-07-23T03:11:08;3.05;;;2.75;;
16314;SDS011;8266;52.150;4.768;2022-07-23T03:13:36;3.17;;;2.88;;
16314;SDS011;8266;52.150;4.768;2022-07-23T03:16:04;3.22;;;2.92;;
16314;SDS011;8266;52.150;4.768;2022-07-23T03:18:32;4.47;;;3.08;;
16314;SDS011;8266;52.150;4.768;2022-07-23T03:20:59;3.95;;;2.42;;
16314;SDS011;8266;52.150;4.768;2022-07-23T03:23:28;4.05;;;2.83;;
16314;SDS011;8266;52.150;4.768;2022-07-23T03:25:55;2.65;;;2.45;;
16314;SDS011;8266;52.150;4.768;2022-07-23T03:28:22;4.45;;;3.30;;
16314;SDS011;8266;52.150;4.768;2022-07-23T03:30:49;4.72;;;2.80;;
16314;SDS011;8266;52.150;4.768;2022-07-23T03:33:17;2.67;;;2.40;;
16314;SDS011;8266;52.150;4.768;2022-07-23T03:35:45;3.08;;;2.53;;
16314;SDS011;8266;52.150;4.768;2022-07-23T03:38:13;3.05;;;2.28;;
16314;SDS011;8266;52.150;4.768;2022-07-23T03:40:42;2.60;;;2.10;;
16314;SDS011;8266;52.150;4.768;2022-07-23T03:43:09;2.78;;;2.47;;
16314;SDS011;8266;52.150;4.768;2022-07-23T03:45:36;2.90;;;2.40;;
16314;SDS011;8266;52.150;4.768;2022-07-23T03:48:05;5.47;;;2.20;;
16314;SDS011;8266;52.150;4.768;2022-07-23T03:50:32;2.60;;;2.40;;
16314;SDS011;8266;52.150;4.768;2022-07-23T03:52:59;3.55;;;2.60;;
16314;SDS011;8266;52.150;4.768;2022-07-23T03:55:26;2.28;;;2.13;;
16314;SDS011;8266;52.150;4.768;2022-07-23T03:57:55;3.25;;;2.17;;
16314;SDS011;8266;52.150;4.768;2022-07-23T04:00:22;2.95;;;2.33;;
16314;SDS011;8266;52.150;4.768;2022-07-23T04:02:49;3.15;;;2.70;;
16314;SDS011;8266;52.150;4.768;2022-07-23T04:05:16;3.35;;;2.72;;
16314;SDS011;8266;52.150;4.768;2022-07-23T04:07:43;2.72;;;2.53;;
16314;SDS011;8266;52.150;4.768;2022-07-23T04:10:10;4.18;;;2.33;;
16314;SDS011;8266;52.150;4.768;2022-07-23T04:12:37;3.72;;;2.63;;
16314;SDS011;8266;52.150;4.768;2022-07-23T04:15:06;2.75;;;2.53;;
16314;SDS011;8266;52.150;4.768;2022-07-23T04:17:34;2.85;;;2.38;;
16314;SDS011;8266;52.150;4.768;2022-07-23T04:20:01;2.20;;;2.10;;
16314;SDS011;8266;52.150;4.768;2022-07-23T04:22:28;1.77;;;1.67;;
16314;SDS011;8266;52.150;4.768;2022-07-23T04:24:55;2.03;;;1.92;;
16314;SDS011;8266;52.150;4.768;2022-07-23T04:27:22;2.35;;;2.20;;
16314;SDS011;8266;52.150;4.768;2022-07-23T04:29:52;2.17;;;1.98;;
16314;SDS011;8266;52.150;4.768;2022-07-23T04:32:21;2.08;;;1.95;;
16314;SDS011;8266;52.150;4.768;2022-07-23T04:34:48;2.45;;;2.25;;
16314;SDS011;8266;52.150;4.768;2022-07-23T04:37:15;3.83;;;2.20;;
16314;SDS011;8266;52.150;4.768;2022-07-23T04:39:42;2.50;;;2.13;;
16314;SDS011;8266;52.150;4.768;2022-07-23T04:42:09;2.63;;;2.40;;
16314;SDS011;8266;52.150;4.768;2022-07-23T04:44:36;3.20;;;2.90;;
16314;SDS011;8266;52.150;4.768;2022-07-23T04:47:04;4.28;;;2.88;;
16314;SDS011;8266;52.150;4.768;2022-07-23T04:49:34;3.92;;;3.00;;
16314;SDS011;8266;52.150;4.768;2022-07-23T04:52:01;2.42;;;2.22;;
16314;SDS011;8266;52.150;4.768;2022-07-23T04:54:29;2.40;;;2.20;;
16314;SDS011;8266;52.150;4.768;2022-07-23T04:56:56;2.97;;;2.67;;
16314;SDS011;8266;52.150;4.768;2022-07-23T04:59:22;3.80;;;2.88;;
16314;SDS011;8266;52.150;4.768;2022-07-23T05:01:49;3.33;;;2.42;;
16314;SDS011;8266;52.150;4.768;2022-07-23T05:04:16;2.28;;;2.13;;
16314;SDS011;8266;52.150;4.768;2022-07-23T05:06:45;3.17;;;2.60;;
16314;SDS011;8266;52.150;4.768;2022-07-23T05:09:15;3.00;;;2.00;;
16314;SDS011;8266;52.150;4.768;2022-07-23T05:11:42;2.42;;;2.22;;
16314;SDS011;8266;52.150;4.768;2022-07-23T05:14:09;2.38;;;2.22;;
16314;SDS011;8266;52.150;4.768;2022-07-23T05:16:37;2.63;;;2.42;;
16314;SDS011;8266;52.150;4.768;2022-07-23T05:19:04;2.63;;;2.42;;
16314;SDS011;8266;52.150;4.768;2022-07-23T05:21:31;5.95;;;2.85;;
16314;SDS011;8266;52.150;4.768;2022-07-23T05:24:00;4.30;;;3.13;;
16314;SDS011;8266;52.150;4.768;2022-07-23T05:26:27;2.55;;;2.35;;
16314;SDS011;8266;52.150;4.768;2022-07-23T05:28:54;2.92;;;2.70;;
16314;SDS011;8266;52.150;4.768;2022-07-23T05:31:21;2.85;;;2.65;;
16314;SDS011;8266;52.150;4.768;2022-07-23T05:33:48;3.30;;;3.00;;
16314;SDS011;8266;52.150;4.768;2022-07-23T05:36:15;2.80;;;2.60;;
16314;SDS011;8266;52.150;4.768;2022-07-23T05:38:42;2.60;;;2.40;;
16314;SDS011;8266;52.150;4.768;2022-07-23T05:41:10;3.08;;;2.78;;
16314;SDS011;8266;52.150;4.768;2022-07-23T05:43:42;3.15;;;2.95;;
16314;SDS011;8266;52.150;4.768;2022-07-23T05:46:10;3.53;;;3.10;;
16314;SDS011;8266;52.150;4.768;2022-07-23T05:48:37;3.30;;;3.00;;
16314;SDS011;8266;52.150;4.768;2022-07-23T05:51:04;4.00;;;3.60;;
16314;SDS011;8266;52.150;4.768;2022-07-23T05:53:31;3.92;;;3.53;;
16314;SDS011;8266;52.150;4.768;2022-07-23T05:55:59;4.15;;;3.75;;
16314;SDS011;8266;52.150;4.768;2022-07-23T05:58:27;4.10;;;3.60;;
16314;SDS011;8266;52.150;4.768;2022-07-23T06:00:54;4.30;;;3.90;;
16314;SDS011;8266;52.150;4.768;2022-07-23T06:03:21;3.78;;;3.30;;
16314;SDS011;8266;52.150;4.768;2022-07-23T06:05:48;3.60;;;2.97;;
16314;SDS011;8266;52.150;4.768;2022-07-23T06:08:15;3.25;;;2.95;;
16314;SDS011;8266;52.150;4.768;2022-07-23T06:10:41;3.50;;;3.20;;
16314;SDS011;8266;52.150;4.768;2022-07-23T06:13:08;4.63;;;2.85;;
16314;SDS011;8266;52.150;4.768;2022-07-23T06:15:37;3.70;;;2.83;;
16314;SDS011;8266;52.150;4.768;2022-07-23T06:18:04;3.33;;;2.90;;
16314;SDS011;8266;52.150;4.768;2022-07-23T06:20:31;2.53;;;2.25;;
16314;SDS011;8266;52.150;4.768;2022-07-23T06:22:58;3.30;;;2.78;;
16314;SDS011;8266;52.150;4.768;2022-07-23T06:25:25;3.78;;;2.65;;
16314;SDS011;8266;52.150;4.768;2022-07-23T06:27:52;4.25;;;2.70;;
16314;SDS011;8266;52.150;4.768;2022-07-23T06:30:19;2.90;;;2.47;;
16314;SDS011;8266;52.150;4.768;2022-07-23T06:32:48;3.20;;;2.90;;
16314;SDS011;8266;52.150;4.768;2022-07-23T06:35:15;1.73;;;1.63;;
16314;SDS011;8266;52.150;4.768;2022-07-23T06:37:43;1.73;;;1.60;;
16314;SDS011;8266;52.150;4.768;2022-07-23T06:40:10;1.95;;;1.58;;
16314;SDS011;8266;52.150;4.768;2022-07-23T06:42:38;1.45;;;1.20;;
16314;SDS011;8266;52.150;4.768;2022-07-23T06:45:05;1.83;;;1.30;;
16314;SDS011;8266;52.150;4.768;2022-07-23T06:47:33;1.38;;;1.00;;
16314;SDS011;8266;52.150;4.768;2022-07-23T06:50:02;1.13;;;1.05;;
16314;SDS011;8266;52.150;4.768;2022-07-23T06:52:29;4.47;;;1.10;;
16314;SDS011;8266;52.150;4.768;2022-07-23T06:54:56;1.50;;;1.00;;
16314;SDS011;8266;52.150;4.768;2022-07-23T06:57:23;1.50;;;1.10;;
16314;SDS011;8266;52.150;4.768;2022-07-23T06:59:50;1.95;;;1.17;;
16314;SDS011;8266;52.150;4.768;2022-07-23T07:02:17;1.30;;;0.88;;
16314;SDS011;8266;52.150;4.768;2022-07-23T07:04:44;0.85;;;0.73;;
16314;SDS011;8266;52.150;4.768;2022-07-23T07:07:13;1.10;;;0.88;;
16314;SDS011;8266;52.150;4.768;2022-07-23T07:09:40;1.05;;;0.90;;
16314;SDS011;8266;52.150;4.768;2022-07-23T07:12:07;0.98;;;0.90;;
16314;SDS011;8266;52.150;4.768;2022-07-23T07:14:34;2.65;;;1.02;;
16314;SDS011;8266;52.150;4.768;2022-07-23T07:17:02;1.25;;;0.68;;
16314;SDS011;8266;52.150;4.768;2022-07-23T07:19:29;1.80;;;1.00;;
16314;SDS011;8266;52.150;4.768;2022-07-23T07:21:56;1.95;;;0.88;;
16314;SDS011;8266;52.150;4.768;2022-07-23T07:24:24;2.20;;;0.93;;
16314;SDS011;8266;52.150;4.768;2022-07-23T07:26:51;2.63;;;1.02;;
16314;SDS011;8266;52.150;4.768;2022-07-23T07:29:18;2.55;;;1.20;;
16314;SDS011;8266;52.150;4.768;2022-07-23T07:31:45;1.92;;;1.10;;
16314;SDS011;8266;52.150;4.768;2022-07-23T07:34:12;2.58;;;1.05;;
16314;SDS011;8266;52.150;4.768;2022-07-23T07:36:39;1.88;;;1.08;;
16314;SDS011;8266;52.150;4.768;2022-07-23T07:39:08;1.27;;;0.80;;
16314;SDS011;8266;52.150;4.768;2022-07-23T07:41:37;1.80;;;1.23;;
16314;SDS011;8266;52.150;4.768;2022-07-23T07:44:04;1.70;;;1.20;;
16314;SDS011;8266;52.150;4.768;2022-07-23T07:46:31;1.20;;;1.05;;
16314;SDS011;8266;52.150;4.768;2022-07-23T07:48:58;2.97;;;0.98;;
16314;SDS011;8266;52.150;4.768;2022-07-23T07:51:25;1.00;;;0.90;;
16314;SDS011;8266;52.150;4.768;2022-07-23T07:53:53;1.92;;;1.15;;
16314;SDS011;8266;52.150;4.768;2022-07-23T07:56:20;2.28;;;1.20;;
16314;SDS011;8266;52.150;4.768;2022-07-23T07:58:49;1.42;;;1.10;;
16314;SDS011;8266;52.150;4.768;2022-07-23T08:01:20;2.45;;;1.20;;
16314;SDS011;8266;52.150;4.768;2022-07-23T08:03:47;1.83;;;1.10;;
16314;SDS011;8266;52.150;4.768;2022-07-23T08:06:15;1.63;;;1.00;;
16314;SDS011;8266;52.150;4.768;2022-07-23T08:09:07;1.38;;;1.10;;
16314;SDS011;8266;52.150;4.768;2022-07-23T08:11:34;1.60;;;1.00;;
16314;SDS011;8266;52.150;4.768;2022-07-23T08:14:03;1.63;;;0.82;;
16314;SDS011;8266;52.150;4.768;2022-07-23T08:16:30;1.08;;;0.80;;
16314;SDS011;8266;52.150;4.768;2022-07-23T08:18:59;2.42;;;1.08;;
16314;SDS011;8266;52.150;4.768;2022-07-23T08:21:29;1.45;;;1.10;;
16314;SDS011;8266;52.150;4.768;2022-07-23T08:24:01;1.77;;;1.02;;
16314;SDS011;8266;52.150;4.768;2022-07-23T08:26:28;2.17;;;1.05;;
16314;SDS011;8266;52.150;4.768;2022-07-23T08:28:56;1.70;;;0.75;;
16314;SDS011;8266;52.150;4.768;2022-07-23T08:31:29;3.33;;;1.02;;
16314;SDS011;8266;52.150;4.768;2022-07-23T08:33:58;2.15;;;0.90;;
16314;SDS011;8266;52.150;4.768;2022-07-23T08:36:28;1.05;;;0.77;;
16314;SDS011;8266;52.150;4.768;2022-07-23T08:38:59;1.85;;;0.90;;
16314;SDS011;8266;52.150;4.768;2022-07-23T08:41:30;0.90;;;0.70;;
16314;SDS011;8266;52.150;4.768;2022-07-23T08:43:59;1.63;;;0.98;;
16314;SDS011;8266;52.150;4.768;2022-07-23T08:46:28;1.77;;;0.80;;
16314;SDS011;8266;52.150;4.768;2022-07-23T08:48:55;1.25;;;0.85;;
16314;SDS011;8266;52.150;4.768;2022-07-23T08:51:24;0.70;;;0.70;;
16314;SDS011;8266;52.150;4.768;2022-07-23T08:53:53;1.33;;;0.82;;
16314;SDS011;8266;52.150;4.768;2022-07-23T08:56:23;1.85;;;0.90;;
16314;SDS011;8266;52.150;4.768;2022-07-23T08:58:51;1.02;;;0.68;;
16314;SDS011;8266;52.150;4.768;2022-07-23T09:01:19;2.83;;;1.05;;
16314;SDS011;8266;52.150;4.768;2022-07-23T09:03:48;2.85;;;0.90;;
16314;SDS011;8266;52.150;4.768;2022-07-23T09:06:15;2.10;;;0.95;;
16314;SDS011;8266;52.150;4.768;2022-07-23T09:08:43;1.55;;;1.02;;
16314;SDS011;8266;52.150;4.768;2022-07-23T09:11:11;2.35;;;0.90;;
16314;SDS011;8266;52.150;4.768;2022-07-23T09:13:45;1.42;;;0.90;;
16314;SDS011;8266;52.150;4.768;2022-07-23T09:16:14;2.15;;;1.02;;
16314;SDS011;8266;52.150;4.768;2022-07-23T09:18:43;1.20;;;1.10;;
16314;SDS011;8266;52.150;4.768;2022-07-23T09:21:15;2.42;;;1.02;;
16314;SDS011;8266;52.150;4.768;2022-07-23T09:23:44;3.70;;;1.10;;
16314;SDS011;8266;52.150;4.768;2022-07-23T09:29:01;1.52;;;0.77;;
16314;SDS011;8266;52.150;4.768;2022-07-23T09:31:31;2.08;;;1.02;;
16314;SDS011;8266;52.150;4.768;2022-07-23T09:34:06;2.42;;;0.90;;
16314;SDS011;8266;52.150;4.768;2022-07-23T09:36:36;1.45;;;0.93;;
16314;SDS011;8266;52.150;4.768;2022-07-23T09:39:07;1.10;;;0.82;;
16314;SDS011;8266;52.150;4.768;2022-07-23T09:41:39;1.88;;;0.77;;
16314;SDS011;8266;52.150;4.768;2022-07-23T09:44:09;1.15;;;0.70;;
16314;SDS011;8266;52.150;4.768;2022-07-23T09:46:38;1.65;;;1.10;;
16314;SDS011;8266;52.150;4.768;2022-07-23T09:49:13;1.98;;;0.90;;
16314;SDS011;8266;52.150;4.768;2022-07-23T09:51:48;1.05;;;0.93;;
16314;SDS011;8266;52.150;4.768;2022-07-23T09:54:20;1.15;;;1.00;;
16314;SDS011;8266;52.150;4.768;2022-07-23T09:56:57;2.30;;;1.20;;
16314;SDS011;8266;52.150;4.768;2022-07-23T09:59:25;2.38;;;1.13;;
16314;SDS011;8266;52.150;4.768;2022-07-23T10:01:58;2.13;;;1.20;;
16314;SDS011;8266;52.150;4.768;2022-07-23T10:04:26;1.83;;;0.93;;
16314;SDS011;8266;52.150;4.768;2022-07-23T10:06:58;1.30;;;0.90;;
16314;SDS011;8266;52.150;4.768;2022-07-23T10:09:27;2.20;;;1.08;;
16314;SDS011;8266;52.150;4.768;2022-07-23T10:11:57;1.13;;;0.80;;
16314;SDS011;8266;52.150;4.768;2022-07-23T10:14:30;1.13;;;0.98;;
16314;SDS011;8266;52.150;4.768;2022-07-23T10:16:57;1.92;;;1.02;;
16314;SDS011;8266;52.150;4.768;2022-07-23T10:19:25;1.23;;;0.90;;
16314;SDS011;8266;52.150;4.768;2022-07-23T10:21:54;1.33;;;1.05;;
16314;SDS011;8266;52.150;4.768;2022-07-23T10:24:38;1.67;;;1.20;;
16314;SDS011;8266;52.150;4.768;2022-07-23T10:27:23;3.35;;;1.10;;
16314;SDS011;8266;52.150;4.768;2022-07-23T10:30:18;1.45;;;1.20;;
16314;SDS011;8266;52.150;4.768;2022-07-23T10:32:53;0.95;;;0.88;;
16314;SDS011;8266;52.150;4.768;2022-07-23T10:35:31;1.17;;;1.05;;
16314;SDS011;8266;52.150;4.768;2022-07-23T10:38:07;2.67;;;1.08;;
16314;SDS011;8266;52.150;4.768;2022-07-23T10:40:50;1.85;;;1.20;;
16314;SDS011;8266;52.150;4.768;2022-07-23T10:43:21;2.25;;;1.10;;
16314;SDS011;8266;52.150;4.768;2022-07-23T10:45:48;1.90;;;1.50;;
16314;SDS011;8266;52.150;4.768;2022-07-23T10:48:16;2.20;;;1.48;;
16314;SDS011;8266;52.150;4.768;2022-07-23T10:59:16;1.70;;;1.30;;
16314;SDS011;8266;52.150;4.768;2022-07-23T11:01:44;1.67;;;1.08;;
16314;SDS011;8266;52.150;4.768;2022-07-23T11:04:11;1.92;;;1.50;;
16314;SDS011;8266;52.150;4.768;2022-07-23T11:09:38;1.42;;;1.27;;
16314;SDS011;8266;52.150;4.768;2022-07-23T11:15:03;1.70;;;1.20;;
16314;SDS011;8266;52.150;4.768;2022-07-23T11:17:33;2.03;;;1.50;;
16314;SDS011;8266;52.150;4.768;2022-07-23T11:20:18;1.25;;;1.15;;
16314;SDS011;8266;52.150;4.768;2022-07-23T11:22:47;2.92;;;1.67;;
16314;SDS011;8266;52.150;4.768;2022-07-23T11:25:29;4.18;;;1.60;;
16314;SDS011;8266;52.150;4.768;2022-07-23T11:28:09;1.67;;;1.50;;
16314;SDS011;8266;52.150;4.768;2022-07-23T11:30:42;2.45;;;1.65;;
16314;SDS011;8266;52.150;4.768;2022-07-23T11:33:15;1.58;;;1.48;;
16314;SDS011;8266;52.150;4.768;2022-07-23T11:35:46;3.90;;;1.88;;
16314;SDS011;8266;52.150;4.768;2022-07-23T11:38:16;1.85;;;1.70;;
16314;SDS011;8266;52.150;4.768;2022-07-23T11:40:45;2.22;;;1.55;;
16314;SDS011;8266;52.150;4.768;2022-07-23T11:43:14;1.63;;;1.52;;
16314;SDS011;8266;52.150;4.768;2022-07-23T11:45:45;2.80;;;1.88;;
16314;SDS011;8266;52.150;4.768;2022-07-23T11:48:16;2.92;;;2.28;;
16314;SDS011;8266;52.150;4.768;2022-07-23T11:50:44;1.70;;;1.45;;
16314;SDS011;8266;52.150;4.768;2022-07-23T11:53:12;2.03;;;1.75;;
16314;SDS011;8266;52.150;4.768;2022-07-23T11:55:39;1.83;;;1.50;;
16314;SDS011;8266;52.150;4.768;2022-07-23T11:58:07;1.40;;;1.30;;
16314;SDS011;8266;52.150;4.768;2022-07-23T12:00:35;2.05;;;1.77;;
16314;SDS011;8266;52.150;4.768;2022-07-23T12:03:08;1.83;;;1.58;;
16314;SDS011;8266;52.150;4.768;2022-07-23T12:05:37;1.50;;;1.40;;
16314;SDS011;8266;52.150;4.768;2022-07-23T12:08:08;1.55;;;1.45;;
16314;SDS011;8266;52.150;4.768;2022-07-23T12:10:37;1.58;;;1.48;;
16314;SDS011;8266;52.150;4.768;2022-07-23T12:13:07;1.73;;;1.50;;
16314;SDS011;8266;52.150;4.768;2022-07-23T12:15:38;1.90;;;1.60;;
16314;SDS011;8266;52.150;4.768;2022-07-23T12:18:07;3.33;;;1.55;;
16314;SDS011;8266;52.150;4.768;2022-07-23T12:20:36;1.55;;;1.45;;
16314;SDS011;8266;52.150;4.768;2022-07-23T12:23:05;2.08;;;1.98;;
16314;SDS011;8266;52.150;4.768;2022-07-23T12:25:35;2.03;;;1.92;;
16314;SDS011;8266;52.150;4.768;2022-07-23T12:28:05;2.38;;;2.17;;
16314;SDS011;8266;52.150;4.768;2022-07-23T12:30:38;2.15;;;1.73;;
16314;SDS011;8266;52.150;4.768;2022-07-23T12:33:08;1.35;;;1.20;;
16314;SDS011;8266;52.150;4.768;2022-07-23T12:35:37;2.67;;;1.60;;
16314;SDS011;8266;52.150;4.768;2022-07-23T12:38:06;1.67;;;1.58;;
16314;SDS011;8266;52.150;4.768;2022-07-23T12:40:43;2.25;;;1.38;;
16314;SDS011;8266;52.150;4.768;2022-07-23T12:43:18;1.80;;;1.48;;
16314;SDS011;8266;52.150;4.768;2022-07-23T12:45:56;1.33;;;1.23;;
16314;SDS011;8266;52.150;4.768;2022-07-23T12:54:41;2.95;;;1.52;;
16314;SDS011;8266;52.150;4.768;2022-07-23T12:57:08;1.80;;;1.52;;
16314;SDS011;8266;52.150;4.768;2022-07-23T12:59:36;1.40;;;1.30;;
16314;SDS011;8266;52.150;4.768;2022-07-23T13:02:04;1.63;;;1.50;;
16314;SDS011;8266;52.150;4.768;2022-07-23T13:04:36;2.35;;;1.50;;
16314;SDS011;8266;52.150;4.768;2022-07-23T13:07:03;1.63;;;1.30;;
16314;SDS011;8266;52.150;4.768;2022-07-23T13:09:31;2.17;;;1.10;;
16314;SDS011;8266;52.150;4.768;2022-07-23T13:12:02;1.83;;;1.42;;
16314;SDS011;8266;52.150;4.768;2022-07-23T13:14:32;1.23;;;1.08;;
16314;SDS011;8266;52.150;4.768;2022-07-23T13:17:01;2.10;;;1.20;;
16314;SDS011;8266;52.150;4.768;2022-07-23T13:19:37;1.73;;;1.25;;
16314;SDS011;8266;52.150;4.768;2022-07-23T13:22:05;1.30;;;1.20;;
16314;SDS011;8266;52.150;4.768;2022-07-23T13:24:32;2.10;;;1.10;;
16314;SDS011;8266;52.150;4.768;2022-07-23T13:27:03;2.22;;;1.55;;
16314;SDS011;8266;52.150;4.768;2022-07-23T13:29:31;2.22;;;1.40;;
16314;SDS011;8266;52.150;4.768;2022-07-23T13:31:59;3.05;;;1.20;;
16314;SDS011;8266;52.150;4.768;2022-07-23T13:34:33;2.47;;;1.58;;
16314;SDS011;8266;52.150;4.768;2022-07-23T13:37:10;1.27;;;1.15;;
16314;SDS011;8266;52.150;4.768;2022-07-23T13:39:38;2.22;;;0.98;;
16314;SDS011;8266;52.150;4.768;2022-07-23T13:42:05;1.42;;;1.17;;
16314;SDS011;8266;52.150;4.768;2022-07-23T13:44:33;2.67;;;1.30;;
16314;SDS011;8266;52.150;4.768;2022-07-23T13:47:04;2.95;;;1.38;;
16314;SDS011;8266;52.150;4.768;2022-07-23T13:49:33;2.10;;;1.10;;
16314;SDS011;8266;52.150;4.768;2022-07-23T13:52:02;1.13;;;1.00;;
16314;SDS011;8266;52.150;4.768;2022-07-23T13:54:31;2.35;;;1.30;;
16314;SDS011;8266;52.150;4.768;2022-07-23T13:56:58;2.08;;;1.50;;
16314;SDS011;8266;52.150;4.768;2022-07-23T13:59:35;1.25;;;0.98;;
16314;SDS011;8266;52.150;4.768;2022-07-23T14:02:13;3.03;;;1.23;;
16314;SDS011;8266;52.150;4.768;2022-07-23T14:04:56;1.92;;;1.17;;
16314;SDS011;8266;52.150;4.768;2022-07-23T14:07:41;1.48;;;1.30;;
16314;SDS011;8266;52.150;4.768;2022-07-23T14:10:12;1.58;;;1.10;;
16314;SDS011;8266;52.150;4.768;2022-07-23T14:12:49;2.35;;;1.10;;
16314;SDS011;8266;52.150;4.768;2022-07-23T14:15:25;1.83;;;1.30;;
16314;SDS011;8266;52.150;4.768;2022-07-23T14:17:58;1.92;;;1.10;;
16314;SDS011;8266;52.150;4.768;2022-07-23T14:20:36;1.30;;;1.10;;
16314;SDS011;8266;52.150;4.768;2022-07-23T14:23:05;1.23;;;1.13;;
16314;SDS011;8266;52.150;4.768;2022-07-23T14:25:33;3.17;;;1.20;;
16314;SDS011;8266;52.150;4.768;2022-07-23T14:28:02;1.25;;;1.10;;
16314;SDS011;8266;52.150;4.768;2022-07-23T14:30:35;1.90;;;1.17;;
16314;SDS011;8266;52.150;4.768;2022-07-23T14:33:04;1.45;;;1.35;;
16314;SDS011;8266;52.150;4.768;2022-07-23T14:35:31;1.35;;;1.10;;
16314;SDS011;8266;52.150;4.768;2022-07-23T14:38:12;1.45;;;1.35;;
16314;SDS011;8266;52.150;4.768;2022-07-23T14:40:48;2.13;;;1.30;;
16314;SDS011;8266;52.150;4.768;2022-07-23T14:43:15;1.98;;;1.33;;
16314;SDS011;8266;52.150;4.768;2022-07-23T14:45:45;2.30;;;1.50;;
16314;SDS011;8266;52.150;4.768;2022-07-23T14:48:27;1.40;;;1.30;;
16314;SDS011;8266;52.150;4.768;2022-07-23T14:50:58;1.80;;;1.35;;
16314;SDS011;8266;52.150;4.768;2022-07-23T14:53:37;1.60;;;1.50;;
16314;SDS011;8266;52.150;4.768;2022-07-23T14:56:07;1.52;;;1.13;;
16314;SDS011;8266;52.150;4.768;2022-07-23T14:58:34;1.20;;;1.10;;
16314;SDS011;8266;52.150;4.768;2022-07-23T15:01:12;2.15;;;1.52;;
16314;SDS011;8266;52.150;4.768;2022-07-23T15:04:10;1.85;;;1.30;;
16314;SDS011;8266;52.150;4.768;2022-07-23T15:06:34;1.75;;;1.40;;
16314;SDS011;8266;52.150;4.768;2022-07-23T15:09:02;3.67;;;1.77;;
16314;SDS011;8266;52.150;4.768;2022-07-23T15:11:37;1.63;;;1.50;;
16314;SDS011;8266;52.150;4.768;2022-07-23T15:14:07;1.85;;;1.45;;
16314;SDS011;8266;52.150;4.768;2022-07-23T15:16:34;1.35;;;1.25;;
16314;SDS011;8266;52.150;4.768;2022-07-23T15:19:02;1.27;;;1.17;;
16314;SDS011;8266;52.150;4.768;2022-07-23T15:21:38;1.48;;;0.82;;
16314;SDS011;8266;52.150;4.768;2022-07-23T15:24:10;4.55;;;1.27;;
16314;SDS011;8266;52.150;4.768;2022-07-23T15:26:37;2.67;;;1.10;;
16314;SDS011;8266;52.150;4.768;2022-07-23T15:29:06;1.60;;;1.17;;
16314;SDS011;8266;52.150;4.768;2022-07-23T15:31:33;2.45;;;1.80;;
16314;SDS011;8266;52.150;4.768;2022-07-23T15:34:03;1.77;;;1.30;;
16314;SDS011;8266;52.150;4.768;2022-07-23T15:36:35;3.65;;;1.42;;
16314;SDS011;8266;52.150;4.768;2022-07-23T15:39:05;1.58;;;1.23;;